Time;durP1;ratioP1;P1;durP2;ratioP2;P2;SDS_P1;SDS_P2;PMS_P1;PMS_P2;Temp;Humidity;BMP_temperature;BMP_pressure;BME280_temperature;BME280_humidity;BME280_pressure;Samples;Min_cycle;Max_cycle;Signal;HPM_P1;HPM_P2
2023/10/07 00:01:07;;;;;;;11.57;3.28;;;17.20;99.90;;;;;;5074803;28;20048;-21
2023/10/07 00:03:34;;;;;;;13.18;3.45;;;17.20;99.90;;;;;;5075661;28;20071;-21
2023/10/07 00:06:02;;;;;;;10.93;3.25;;;17.20;99.90;;;;;;5073755;28;20111;-21
2023/10/07 00:08:28;;;;;;;18.98;4.65;;;17.10;99.90;;;;;;5074602;28;20040;-21
2023/10/07 00:10:58;;;;;;;18.38;5.10;;;17.20;99.90;;;;;;5074612;28;20044;-21
2023/10/07 00:13:30;;;;;;;14.85;3.03;;;17.20;99.90;;;;;;5073438;28;20127;-21
2023/10/07 00:15:56;;;;;;;9.70;2.70;;;17.30;99.90;;;;;;5073922;28;20052;-21
2023/10/07 00:18:28;;;;;;;15.68;3.22;;;17.30;99.90;;;;;;5073336;28;20530;-21
2023/10/07 00:20:55;;;;;;;14.65;3.80;;;17.30;99.90;;;;;;5074303;28;20056;-21
2023/10/07 00:23:24;;;;;;;12.23;3.08;;;17.20;99.90;;;;;;5074390;28;20052;-21
2023/10/07 00:25:53;;;;;;;17.77;4.22;;;17.30;99.90;;;;;;5074336;28;20048;-21
2023/10/07 00:28:32;;;;;;;8.93;3.08;;;17.20;99.90;;;;;;5074280;28;20052;-21
2023/10/07 00:31:12;;;;;;;22.10;3.67;;;17.20;99.90;;;;;;5074354;28;20131;-21
2023/10/07 00:36:41;;;;;;;18.63;5.68;;;17.00;99.90;;;;;;5074995;28;20064;-20
2023/10/07 00:39:08;;;;;;;11.60;3.45;;;17.00;99.90;;;;;;5057396;28;20057;-20
2023/10/07 00:41:46;;;;;;;12.73;3.22;;;16.90;99.90;;;;;;5074930;28;20064;-20
2023/10/07 00:44:31;;;;;;;14.43;3.60;;;17.00;99.90;;;;;;5057053;28;20044;-21
2023/10/07 00:49:39;;;;;;;;;;;17.00;99.90;;;;;;5074515;28;20061;-21
2023/10/07 00:52:12;;;;;;;12.18;3.25;;;17.00;99.90;;;;;;5073992;28;19966;-19
2023/10/07 00:57:48;;;;;;;10.98;3.15;;;16.50;99.90;;;;;;5073798;28;20056;-19
2023/10/07 01:02:54;;;;;;;13.40;3.90;;;16.00;99.90;;;;;;5073140;28;20182;-20
2023/10/07 01:05:25;;;;;;;17.90;5.25;;;16.30;99.90;;;;;;5074673;28;20506;-20
2023/10/07 01:07:55;;;;;;;14.68;3.97;;;16.70;99.90;;;;;;5057124;28;20119;-20
2023/10/07 01:10:31;;;;;;;12.57;3.42;;;16.70;99.90;;;;;;5073652;28;20490;-20
2023/10/07 01:13:02;;;;;;;19.63;4.13;;;16.70;99.90;;;;;;5073072;28;20132;-20
2023/10/07 01:15:34;;;;;;;21.88;5.25;;;16.50;99.90;;;;;;5074012;28;20051;-20
2023/10/07 01:18:06;;;;;;;14.63;3.80;;;16.20;99.90;;;;;;5073323;28;20056;-20
2023/10/07 01:23:22;;;;;;;14.00;4.53;;;16.20;99.90;;;;;;5074204;28;20055;-20
2023/10/07 01:25:50;;;;;;;14.50;3.58;;;16.40;99.90;;;;;;5072655;28;20145;-21
2023/10/07 01:28:20;;;;;;;19.92;4.57;;;16.20;99.90;;;;;;5072321;28;20059;-21
2023/10/07 01:31:08;;;;;;;17.73;4.75;;;16.30;99.90;;;;;;5074163;28;20044;-21
2023/10/07 01:33:45;;;;;;;12.23;3.45;;;16.60;99.90;;;;;;5073527;28;20581;-21
2023/10/07 01:36:18;;;;;;;12.40;3.30;;;16.40;99.90;;;;;;5073569;28;20055;-21
2023/10/07 01:38:48;;;;;;;12.05;3.90;;;16.50;99.90;;;;;;5057737;28;20057;-21
2023/10/07 01:41:21;;;;;;;14.20;3.72;;;16.80;99.90;;;;;;5072519;28;20052;-21
2023/10/07 01:44:00;;;;;;;15.10;4.30;;;16.70;99.90;;;;;;5073469;28;20156;-21
2023/10/07 01:46:28;;;;;;;17.02;4.20;;;17.00;99.90;;;;;;5073415;28;20055;-21
2023/10/07 01:49:11;;;;;;;16.02;3.65;;;16.90;99.90;;;;;;5073167;28;20132;-21
2023/10/07 01:51:44;;;;;;;10.95;2.92;;;17.10;99.90;;;;;;5072224;28;20056;-21
2023/10/07 01:54:11;;;;;;;20.98;3.88;;;17.00;99.90;;;;;;5074177;28;20367;-21
2023/10/07 01:56:38;;;;;;;10.60;3.08;;;16.80;99.90;;;;;;5073192;28;20040;-21
2023/10/07 01:59:17;;;;;;;11.88;3.58;;;17.20;99.90;;;;;;5074049;28;20044;-20
2023/10/07 02:01:53;;;;;;;11.23;3.00;;;17.00;99.90;;;;;;5072963;28;20475;-21
2023/10/07 02:04:26;;;;;;;10.23;3.33;;;16.90;99.90;;;;;;5072021;28;20084;-21
2023/10/07 02:06:56;;;;;;;;;;;16.90;99.90;;;;;;5073556;28;20387;-21
2023/10/07 02:09:26;;;;;;;14.20;3.20;;;17.00;99.90;;;;;;5073100;28;20033;-20
2023/10/07 02:11:53;;;;;;;11.13;3.00;;;17.00;99.90;;;;;;5073085;28;20048;-21
2023/10/07 02:14:23;;;;;;;12.38;2.90;;;17.10;99.90;;;;;;5073797;28;20049;-21
2023/10/07 02:16:49;;;;;;;11.70;2.72;;;17.00;99.90;;;;;;5076282;28;20098;-20
2023/10/07 02:19:26;;;;;;;17.15;3.03;;;17.20;99.90;;;;;;5076770;28;20041;-20
2023/10/07 02:21:59;;;;;;;8.38;2.20;;;17.10;99.90;;;;;;5077074;28;20052;-21
2023/10/07 02:24:29;;;;;;;8.43;3.22;;;17.10;99.90;;;;;;5058834;28;20052;-20
2023/10/07 02:27:06;;;;;;;11.18;3.30;;;17.10;99.90;;;;;;5076892;28;20044;-20
2023/10/07 02:29:34;;;;;;;14.35;4.07;;;17.30;99.90;;;;;;5077382;28;20041;-21
2023/10/07 02:32:35;;;;;;;12.20;3.78;;;17.20;99.90;;;;;;5076161;28;20463;-21
2023/10/07 02:34:52;;;;;;;12.50;4.90;;;17.00;99.90;;;;;;5074932;28;20048;-20
2023/10/07 02:37:25;;;;;;;18.02;3.20;;;17.20;99.90;;;;;;5076435;28;20044;-21
2023/10/07 02:39:56;;;;;;;;;;;17.00;99.90;;;;;;5075706;28;20048;-20
2023/10/07 02:42:28;;;;;;;13.82;3.17;;;16.90;99.90;;;;;;5076993;28;20320;-20
2023/10/07 02:47:51;;;;;;;12.15;4.22;;;17.20;99.90;;;;;;5076312;28;20097;-20
2023/10/07 02:50:20;;;;;;;14.18;3.88;;;17.10;99.90;;;;;;5075624;28;20443;-21
2023/10/07 02:52:47;;;;;;;12.90;3.60;;;17.10;99.90;;;;;;5076195;28;20557;-20
2023/10/07 02:57:43;;;;;;;10.35;3.10;;;17.00;99.90;;;;;;5076017;28;20190;-21
2023/10/07 03:00:29;;;;;;;9.95;3.08;;;17.10;99.90;;;;;;5076087;28;20044;-20
2023/10/07 03:03:10;;;;;;;12.75;3.67;;;17.00;99.90;;;;;;5076285;28;20496;-20
2023/10/07 03:08:31;;;;;;;15.93;3.47;;;17.00;99.90;;;;;;5076768;28;20044;-21
2023/10/07 03:11:06;;;;;;;23.60;4.43;;;17.10;99.90;;;;;;5075927;28;20486;-21
2023/10/07 03:13:38;;;;;;;14.65;3.10;;;17.10;99.90;;;;;;5075558;28;20438;-21
2023/10/07 03:18:48;;;;;;;7.78;2.15;;;17.20;99.90;;;;;;5076596;28;20107;-21
2023/10/07 03:21:15;;;;;;;15.13;2.95;;;17.00;99.90;;;;;;5058351;28;20052;-21
2023/10/07 03:23:58;;;;;;;13.68;4.10;;;17.00;99.90;;;;;;5075589;28;20060;-21
2023/10/07 03:26:24;;;;;;;16.02;3.17;;;17.20;99.90;;;;;;5075000;28;20076;-21
2023/10/07 03:28:55;;;;;;;14.07;2.72;;;17.00;99.90;;;;;;5075426;28;20518;-21
2023/10/07 03:31:35;;;;;;;13.00;3.08;;;17.00;99.90;;;;;;5074882;28;20048;-20
2023/10/07 03:34:08;;;;;;;16.95;3.65;;;17.20;99.90;;;;;;5076037;28;20067;-21
2023/10/07 03:41:52;;;;;;;15.23;4.05;;;17.00;99.90;;;;;;5075222;28;20142;-21
2023/10/07 03:44:25;;;;;;;15.45;3.22;;;17.10;99.90;;;;;;5075530;28;20386;-21
2023/10/07 03:46:55;;;;;;;12.13;3.33;;;17.10;99.90;;;;;;5075200;28;20048;-20
2023/10/07 03:49:22;;;;;;;15.55;3.63;;;17.00;99.90;;;;;;5074106;28;20143;-21
2023/10/07 03:52:03;;;;;;;19.02;3.75;;;17.20;99.90;;;;;;5057560;28;20086;-21
2023/10/07 03:54:30;;;;;;;14.85;3.22;;;17.20;99.90;;;;;;5075031;28;20052;-21
2023/10/07 03:56:59;;;;;;;20.20;3.83;;;16.90;99.90;;;;;;5074820;28;20040;-20
2023/10/07 03:59:27;;;;;;;12.07;3.35;;;17.00;99.90;;;;;;5074582;28;20045;-21
2023/10/07 04:01:53;;;;;;;14.63;4.05;;;16.90;99.90;;;;;;5075346;28;20048;-21
2023/10/07 04:04:23;;;;;;;10.27;2.50;;;17.10;99.90;;;;;;5074524;28;20482;-21
2023/10/07 04:06:50;;;;;;;18.48;4.38;;;16.90;99.90;;;;;;5057133;28;20052;-21
2023/10/07 04:09:17;;;;;;;19.45;4.40;;;16.90;99.90;;;;;;5075418;28;20045;-21
2023/10/07 04:11:49;;;;;;;15.13;3.55;;;16.90;99.90;;;;;;5074651;28;20402;-21
2023/10/07 04:14:19;;;;;;;14.52;3.30;;;17.10;99.90;;;;;;5074826;28;20437;-21
2023/10/07 04:17:03;;;;;;;17.48;3.22;;;17.10;99.90;;;;;;5074271;28;20494;-21
2023/10/07 04:21:55;;;;;;;16.77;4.10;;;17.10;99.90;;;;;;5074412;28;20403;-21
2023/10/07 04:24:26;;;;;;;14.45;4.35;;;17.10;99.90;;;;;;5073969;28;20053;-21
2023/10/07 04:26:54;;;;;;;17.80;5.03;;;17.10;99.90;;;;;;5074408;28;20045;-21
2023/10/07 04:29:21;;;;;;;13.63;3.38;;;17.00;99.90;;;;;;5074035;28;20051;-21
2023/10/07 04:31:53;;;;;;;17.70;4.45;;;16.90;99.90;;;;;;5074292;28;20395;-20
2023/10/07 04:34:23;;;;;;;19.83;3.97;;;17.10;99.90;;;;;;5074810;28;20045;-21
2023/10/07 04:39:31;;;;;;;16.83;3.03;;;17.00;99.90;;;;;;5074466;28;20105;-20
2023/10/07 04:42:05;;;;;;;15.82;3.50;;;17.00;99.90;;;;;;5074123;28;20052;-21
2023/10/07 04:52:51;;;;;;;20.92;4.15;;;17.00;99.90;;;;;;5065087;28;20155;-21
2023/10/07 04:55:26;;;;;;;17.10;3.23;;;16.90;99.90;;;;;;5074331;28;20071;-21
2023/10/07 05:03:14;;;;;;;18.23;3.70;;;16.90;99.90;;;;;;5074708;28;20069;-21
2023/10/07 05:05:43;;;;;;;11.30;3.28;;;16.90;99.90;;;;;;5073922;28;20048;-21
2023/10/07 05:08:17;;;;;;;13.40;3.67;;;16.90;99.90;;;;;;5073835;28;20052;-21
2023/10/07 05:10:50;;;;;;;15.82;3.40;;;17.00;99.90;;;;;;5072785;28;20037;-21
2023/10/07 05:13:16;;;;;;;21.50;5.45;;;17.00;99.90;;;;;;5073770;28;20080;-21
2023/10/07 05:15:42;;;;;;;16.52;3.30;;;17.10;99.90;;;;;;5072931;28;20045;-21
2023/10/07 05:18:12;;;;;;;18.77;3.85;;;17.10;99.90;;;;;;5074171;28;20086;-21
2023/10/07 05:20:43;;;;;;;16.10;3.17;;;16.90;99.90;;;;;;5055715;28;20041;-21
2023/10/07 05:23:14;;;;;;;16.83;4.60;;;17.20;99.90;;;;;;5072986;28;20056;-21
2023/10/07 05:25:48;;;;;;;17.67;4.25;;;17.00;99.90;;;;;;5073622;28;20067;-20
2023/10/07 05:28:17;;;;;;;13.40;3.65;;;17.20;99.90;;;;;;5074427;28;20061;-21
2023/10/07 05:30:50;;;;;;;14.77;3.25;;;17.00;99.90;;;;;;5073454;28;20051;-20
2023/10/07 05:33:24;;;;;;;14.85;3.33;;;17.00;99.90;;;;;;5072993;28;20044;-21
2023/10/07 05:36:00;;;;;;;16.33;3.50;;;17.10;99.90;;;;;;5073580;28;20074;-21
2023/10/07 05:38:26;;;;;;;12.55;3.35;;;16.90;99.90;;;;;;5071986;28;20059;-20
2023/10/07 05:40:52;;;;;;;11.52;3.17;;;17.00;99.90;;;;;;5073481;28;20045;-21
2023/10/07 05:43:18;;;;;;;16.90;3.42;;;17.10;99.90;;;;;;5073012;28;20106;-21
2023/10/07 05:45:45;;;;;;;13.98;3.03;;;17.10;99.90;;;;;;5072232;28;20483;-20
2023/10/07 05:48:11;;;;;;;17.35;3.97;;;16.90;99.90;;;;;;5073923;28;20129;-20
2023/10/07 05:50:38;;;;;;;13.15;2.45;;;16.90;99.90;;;;;;5075742;28;20623;-20
2023/10/07 05:53:05;;;;;;;11.07;2.90;;;17.00;99.90;;;;;;5078142;28;20044;-20
2023/10/07 05:55:36;;;;;;;22.60;3.83;;;16.90;99.90;;;;;;5076313;28;20063;-21
2023/10/07 05:58:02;;;;;;;18.25;3.58;;;16.70;99.90;;;;;;5077101;28;20136;-19
2023/10/07 06:00:31;;;;;;;20.73;3.92;;;16.80;99.90;;;;;;5076577;28;20079;-19
2023/10/07 06:03:08;;;;;;;18.65;3.50;;;16.60;99.90;;;;;;5077133;28;20398;-19
2023/10/07 06:05:38;;;;;;;17.25;4.22;;;16.30;99.90;;;;;;5077104;28;20049;-19
2023/10/07 06:08:05;;;;;;;19.70;3.47;;;16.80;99.90;;;;;;5077841;28;20186;-19
2023/10/07 06:10:33;;;;;;;14.55;4.07;;;16.20;99.90;;;;;;5076902;28;20049;-19
2023/10/07 06:13:10;;;;;;;14.02;3.45;;;16.20;99.90;;;;;;5076928;28;20119;-19
2023/10/07 06:15:39;;;;;;;16.77;4.32;;;16.70;99.90;;;;;;5076614;28;20490;-20
2023/10/07 06:18:06;;;;;;;17.75;3.95;;;16.70;99.90;;;;;;5076812;28;20403;-19
2023/10/07 06:20:38;;;;;;;16.45;4.38;;;16.70;99.90;;;;;;5076758;28;20044;-19
2023/10/07 06:23:15;;;;;;;18.70;4.50;;;16.70;99.90;;;;;;5076862;28;20079;-19
2023/10/07 06:25:48;;;;;;;17.50;4.35;;;16.70;99.90;;;;;;5077557;28;20051;-20
2023/10/07 06:31:00;;;;;;;18.95;4.60;;;16.60;99.90;;;;;;5076561;28;20044;-19
2023/10/07 06:33:26;;;;;;;18.08;4.43;;;16.30;99.90;;;;;;5076530;28;20127;-20
2023/10/07 06:35:53;;;;;;;18.15;4.22;;;16.70;99.90;;;;;;5076498;28;20048;-20
2023/10/07 06:38:22;;;;;;;13.32;2.88;;;16.70;99.90;;;;;;5058994;28;20052;-20
2023/10/07 06:40:48;;;;;;;12.93;3.40;;;16.70;99.90;;;;;;5077255;28;20051;-19
2023/10/07 06:43:15;;;;;;;16.45;3.80;;;16.60;99.90;;;;;;5076692;28;20401;-19
2023/10/07 06:45:44;;;;;;;22.40;5.00;;;16.50;99.90;;;;;;5076413;28;20135;-19
2023/10/07 06:48:11;;;;;;;13.15;3.53;;;16.70;99.90;;;;;;5076313;28;20185;-20
2023/10/07 06:50:41;;;;;;;12.15;3.47;;;16.30;99.90;;;;;;5075918;28;20061;-20
2023/10/07 06:53:11;;;;;;;21.55;4.38;;;16.70;99.90;;;;;;5076222;28;20071;-20
2023/10/07 06:55:42;;;;;;;13.05;3.90;;;16.80;99.90;;;;;;5075851;28;20494;-20
2023/10/07 06:58:09;;;;;;;11.57;3.20;;;16.80;99.90;;;;;;5076187;28;20145;-20
2023/10/07 07:00:47;;;;;;;18.85;3.88;;;16.80;99.90;;;;;;5075176;28;20051;-20
2023/10/07 07:03:19;;;;;;;17.38;3.42;;;16.50;99.90;;;;;;5076171;28;20052;-20
2023/10/07 07:05:46;;;;;;;14.85;4.00;;;16.90;99.90;;;;;;5075961;28;20049;-20
2023/10/07 07:08:15;;;;;;;12.52;3.60;;;16.90;99.90;;;;;;5076747;28;20045;-20
2023/10/07 07:10:41;;;;;;;19.10;3.78;;;16.90;99.90;;;;;;5076056;28;20037;-20
2023/10/07 07:13:15;;;;;;;17.27;3.53;;;16.80;99.90;;;;;;5075670;28;20056;-20
2023/10/07 07:15:47;;;;;;;12.60;3.10;;;16.80;99.90;;;;;;5075859;28;20117;-20
2023/10/07 07:23:51;;;;;;;10.50;3.20;;;16.70;99.90;;;;;;5033379;28;20175;-20
2023/10/07 07:26:21;;;;;;;10.32;3.45;;;17.00;99.90;;;;;;5033289;28;20041;-20
2023/10/07 07:28:48;;;;;;;15.00;3.30;;;16.90;99.90;;;;;;5054530;28;20135;-20
2023/10/07 07:31:33;;;;;;;9.55;2.80;;;16.80;99.90;;;;;;5075783;28;20048;-20
2023/10/07 07:34:20;;;;;;;12.60;2.72;;;16.90;99.90;;;;;;5077152;28;20510;-20
2023/10/07 07:36:55;;;;;;;14.02;2.70;;;16.90;99.90;;;;;;5096167;28;20507;-20
2023/10/07 07:39:22;;;;;;;16.10;4.03;;;17.10;99.90;;;;;;5094929;28;20482;-20
2023/10/07 07:41:58;;;;;;;10.07;2.80;;;17.00;99.90;;;;;;5096362;28;20079;-20
2023/10/07 07:44:33;;;;;;;7.25;2.45;;;17.00;99.90;;;;;;5095103;28;20371;-20
2023/10/07 07:47:02;;;;;;;12.68;3.38;;;17.20;99.90;;;;;;5095771;28;20044;-20
2023/10/07 07:49:32;;;;;;;14.80;3.67;;;17.10;99.90;;;;;;5094214;28;20058;-20
2023/10/07 07:51:59;;;;;;;7.30;2.00;;;17.40;99.90;;;;;;5095933;28;20372;-20
2023/10/07 07:54:25;;;;;;;14.18;2.78;;;17.40;99.90;;;;;;5094114;28;20059;-20
2023/10/07 07:56:54;;;;;;;13.95;2.70;;;17.50;99.90;;;;;;5095118;28;20044;-20
2023/10/07 07:59:20;;;;;;;12.93;3.00;;;17.30;99.90;;;;;;5094521;28;20097;-19
2023/10/07 08:01:53;;;;;;;15.80;3.17;;;17.40;99.90;;;;;;5094782;28;20086;-20
2023/10/07 08:05:04;;;;;;;;;;;17.40;99.90;;;;;;5095852;28;20123;-20
2023/10/07 08:07:18;;;;;;;13.75;3.15;;;17.50;99.90;;;;;;5091863;28;19920;-20
2023/10/07 08:09:46;;;;;;;16.75;3.33;;;17.50;99.90;;;;;;5094962;28;20549;-20
2023/10/07 08:12:18;;;;;;;16.73;3.63;;;17.40;99.90;;;;;;5094565;28;20048;-20
2023/10/07 08:14:46;;;;;;;11.63;2.78;;;17.40;99.90;;;;;;5095512;28;20139;-20
2023/10/07 08:17:19;;;;;;;11.05;3.22;;;17.40;99.90;;;;;;5094511;28;20490;-20
2023/10/07 08:19:50;;;;;;;12.30;3.30;;;17.30;99.90;;;;;;5094822;28;20044;-20
2023/10/07 08:22:19;;;;;;;10.95;3.70;;;17.30;99.90;;;;;;5095288;28;20052;-20
2023/10/07 08:24:45;;;;;;;11.65;3.35;;;17.40;99.90;;;;;;5093505;28;20048;-20
2023/10/07 08:27:43;;;;;;;11.60;3.35;;;17.30;99.90;;;;;;5093724;28;20096;-20
2023/10/07 08:30:05;;;;;;;18.10;3.20;;;17.30;99.90;;;;;;5094781;28;20048;-20
2023/10/07 08:32:37;;;;;;;9.88;2.60;;;17.40;99.90;;;;;;5095473;28;20487;-28
2023/10/07 08:35:14;;;;;;;13.68;3.33;;;17.30;99.90;;;;;;5094670;28;20101;-20
2023/10/07 08:37:47;;;;;;;12.55;3.33;;;17.40;99.90;;;;;;5093801;28;20470;-20
2023/10/07 08:40:28;;;;;;;13.88;3.47;;;17.50;99.90;;;;;;5093254;28;20096;-20
2023/10/07 08:42:58;;;;;;;12.43;4.03;;;17.70;99.90;;;;;;5094362;28;20047;-20
2023/10/07 08:45:29;;;;;;;10.77;3.15;;;17.70;99.90;;;;;;5095128;28;20429;-20
2023/10/07 08:48:08;;;;;;;9.10;2.78;;;17.70;99.90;;;;;;5094666;28;20066;-20
2023/10/07 08:50:49;;;;;;;15.10;3.60;;;17.60;99.90;;;;;;5094296;28;20055;-20
2023/10/07 08:53:15;;;;;;;14.48;3.20;;;17.60;99.90;;;;;;5077850;28;20048;-20
2023/10/07 08:55:43;;;;;;;13.35;3.63;;;17.60;99.90;;;;;;5093820;28;20555;-21
2023/10/07 08:58:11;;;;;;;12.02;2.90;;;17.60;99.90;;;;;;5094085;28;20101;-20
2023/10/07 09:00:45;;;;;;;14.80;3.17;;;17.60;99.90;;;;;;5094141;28;20382;-20
2023/10/07 09:03:15;;;;;;;18.65;3.85;;;17.50;99.90;;;;;;5094091;28;20044;-20
2023/10/07 09:05:43;;;;;;;14.70;3.28;;;17.60;99.90;;;;;;5093044;28;20506;-21
2023/10/07 09:08:12;;;;;;;11.75;3.08;;;17.50;99.90;;;;;;5094489;28;20048;-20
2023/10/07 09:10:38;;;;;;;13.15;4.00;;;17.60;99.90;;;;;;5092690;28;20036;-20
2023/10/07 09:13:05;;;;;;;12.00;2.75;;;17.70;99.90;;;;;;5093883;28;20043;-20
2023/10/07 09:15:35;;;;;;;16.02;4.20;;;17.70;99.90;;;;;;5092768;28;20048;-21
2023/10/07 09:18:04;;;;;;;14.07;4.03;;;17.80;99.90;;;;;;5092858;28;20091;-21
2023/10/07 09:20:35;;;;;;;14.02;4.10;;;17.70;99.90;;;;;;5094120;28;20439;-21
2023/10/07 09:23:14;;;;;;;9.77;2.97;;;17.80;99.90;;;;;;5094001;28;20482;-20
2023/10/07 09:25:46;;;;;;;17.73;4.70;;;17.80;99.90;;;;;;5091916;28;20044;-21
2023/10/07 09:28:13;;;;;;;14.23;3.53;;;17.80;99.90;;;;;;5093811;28;20056;-20
2023/10/07 09:33:18;;;;;;;12.40;3.83;;;17.70;99.90;;;;;;5093774;28;20052;-21
2023/10/07 09:36:15;;;;;;;16.00;3.88;;;17.70;99.90;;;;;;5092592;28;20548;-21
2023/10/07 09:38:41;;;;;;;16.00;3.60;;;17.70;99.90;;;;;;5093952;28;20048;-21
2023/10/07 09:41:23;;;;;;;12.25;3.65;;;17.60;99.90;;;;;;5094230;28;20047;-20
2023/10/07 09:43:56;;;;;;;10.00;3.38;;;17.70;99.90;;;;;;5094282;28;20051;-20
2023/10/07 09:46:27;;;;;;;12.40;3.63;;;17.70;99.90;;;;;;5094490;28;20087;-21
2023/10/07 09:49:00;;;;;;;12.52;3.90;;;17.70;99.90;;;;;;5093344;28;20077;-19
2023/10/07 09:51:34;;;;;;;14.10;3.45;;;17.80;99.90;;;;;;5094176;28;20071;-21
2023/10/07 09:54:26;;;;;;;16.35;4.35;;;17.80;99.90;;;;;;5094419;28;20052;-21
2023/10/07 09:57:20;;;;;;;21.40;6.83;;;17.80;99.90;;;;;;5093934;28;20048;-21
2023/10/07 09:59:58;;;;;;;15.65;3.70;;;17.80;99.90;;;;;;5092329;28;20190;-21
2023/10/07 10:03:03;;;;;;;13.20;3.40;;;17.70;99.90;;;;;;5093508;28;20243;-20
2023/10/07 10:05:31;;;;;;;13.23;4.30;;;17.70;99.90;;;;;;5094025;28;20401;-21
2023/10/07 10:08:37;;;;;;;18.27;4.20;;;17.80;99.90;;;;;;5093382;28;20062;-21
2023/10/07 10:11:19;;;;;;;14.93;4.95;;;17.90;99.90;;;;;;5092918;28;20036;-21
2023/10/07 10:16:44;;;;;;;13.52;4.13;;;18.10;99.90;;;;;;5093826;28;20052;-20
2023/10/07 10:19:47;;;;;;;13.48;4.32;;;18.10;99.90;;;;;;5093519;28;20117;-21
2023/10/07 10:22:24;;;;;;;14.15;3.53;;;18.00;99.90;;;;;;5093917;28;20063;-20
2023/10/07 10:24:54;;;;;;;11.13;3.28;;;18.00;99.90;;;;;;5093888;28;20050;-21
2023/10/07 10:27:20;;;;;;;13.57;3.92;;;17.90;99.90;;;;;;5093316;28;20044;-21
2023/10/07 10:30:06;;;;;;;19.75;5.25;;;17.90;99.90;;;;;;5093595;28;20051;-21
2023/10/07 10:32:36;;;;;;;15.93;4.00;;;17.90;99.90;;;;;;5093441;28;20044;-21
2023/10/07 10:35:07;;;;;;;13.55;3.72;;;18.00;99.90;;;;;;5093099;28;20502;-21
2023/10/07 10:37:34;;;;;;;11.60;4.05;;;18.10;99.90;;;;;;5096778;28;20536;-21
2023/10/07 10:40:15;;;;;;;15.20;5.20;;;18.10;99.90;;;;;;5097592;28;20489;-21
2023/10/07 10:42:42;;;;;;;11.25;4.53;;;18.10;99.90;;;;;;5096666;28;20047;-21
2023/10/07 10:45:21;;;;;;;13.07;4.10;;;18.10;99.90;;;;;;5096630;28;20562;-21
2023/10/07 10:47:52;;;;;;;9.05;3.17;;;18.20;99.90;;;;;;5096631;28;20089;-21
2023/10/07 10:50:20;;;;;;;12.50;4.50;;;18.10;99.90;;;;;;5096458;28;20052;-21
2023/10/07 10:52:49;;;;;;;15.57;3.65;;;18.10;99.90;;;;;;5096500;28;20493;-21
2023/10/07 10:55:19;;;;;;;11.63;4.00;;;18.10;99.90;;;;;;5096441;28;20067;-21
2023/10/07 10:57:45;;;;;;;12.23;3.35;;;18.00;99.90;;;;;;5079087;28;20092;-21
2023/10/07 11:00:22;;;;;;;11.82;3.75;;;17.90;99.90;;;;;;5096343;28;20080;-22
2023/10/07 11:02:54;;;;;;;17.27;5.38;;;17.90;99.90;;;;;;5079700;28;20040;-22
2023/10/07 11:05:21;;;;;;;7.88;3.53;;;18.00;99.90;;;;;;5096109;28;20059;-22
2023/10/07 11:07:50;;;;;;;14.93;3.63;;;17.90;99.90;;;;;;5096209;28;20085;-21
2023/10/07 11:10:22;;;;;;;16.33;4.28;;;17.90;99.90;;;;;;5078362;28;20070;-22
2023/10/07 11:12:52;;;;;;;19.67;3.92;;;17.90;99.90;;;;;;5095017;28;20040;-22
2023/10/07 11:15:29;;;;;;;14.43;3.90;;;18.00;99.90;;;;;;5096007;28;20123;-22
2023/10/07 11:17:58;;;;;;;11.00;3.63;;;18.00;99.90;;;;;;5096340;28;20052;-22
2023/10/07 11:20:32;;;;;;;13.38;3.97;;;18.00;99.90;;;;;;5078471;28;20071;-22
2023/10/07 11:22:58;;;;;;;15.18;3.92;;;17.90;99.90;;;;;;5096589;28;20041;-22
2023/10/07 11:25:26;;;;;;;12.13;4.53;;;17.90;99.90;;;;;;5095867;28;20050;-22
2023/10/07 11:27:55;;;;;;;14.18;3.92;;;17.80;99.90;;;;;;5096598;28;20079;-21
2023/10/07 11:30:22;;;;;;;13.65;4.70;;;17.80;99.90;;;;;;5095648;28;20047;-22
2023/10/07 11:32:50;;;;;;;10.35;3.53;;;17.70;99.90;;;;;;5095620;28;20047;-21
2023/10/07 11:35:21;;;;;;;16.63;4.13;;;17.70;99.90;;;;;;5095652;28;20474;-21
2023/10/07 11:37:57;;;;;;;14.65;4.55;;;17.60;99.90;;;;;;5096156;28;20407;-22
2023/10/07 11:40:24;;;;;;;18.65;4.68;;;17.70;99.90;;;;;;5095617;28;20067;-21
2023/10/07 11:42:51;;;;;;;10.63;3.60;;;17.80;99.90;;;;;;5096120;28;20052;-22
2023/10/07 11:45:17;;;;;;;14.57;4.05;;;17.90;99.90;;;;;;5095500;28;20043;-22
2023/10/07 11:47:44;;;;;;;12.55;4.00;;;18.20;99.90;;;;;;5076959;28;20047;-22
2023/10/07 11:50:10;;;;;;;14.98;4.05;;;18.40;99.90;;;;;;5095568;28;20078;-22
2023/10/07 11:52:37;;;;;;;14.13;3.75;;;18.50;99.90;;;;;;5095287;28;20482;-22
2023/10/07 11:55:07;;;;;;;12.18;3.60;;;18.50;99.90;;;;;;5094964;28;20093;-21
2023/10/07 11:57:34;;;;;;;11.68;4.03;;;18.30;99.90;;;;;;5095744;28;20397;-22
2023/10/07 12:00:00;;;;;;;11.00;3.72;;;18.00;99.90;;;;;;5094016;28;20051;-22
2023/10/07 12:02:26;;;;;;;14.57;3.78;;;17.90;99.90;;;;;;5094584;28;20052;-21
2023/10/07 12:04:53;;;;;;;13.88;4.53;;;17.80;99.90;;;;;;5094767;28;20052;-22
2023/10/07 12:07:19;;;;;;;15.20;5.55;;;17.80;99.90;;;;;;5093893;28;20119;-23
2023/10/07 12:09:47;;;;;;;13.68;4.03;;;17.80;99.90;;;;;;5094932;28;20040;-22
2023/10/07 12:12:14;;;;;;;12.35;4.10;;;17.70;99.90;;;;;;5094973;28;20048;-21
2023/10/07 12:14:40;;;;;;;13.75;3.83;;;17.70;99.90;;;;;;5094915;28;20052;-22
2023/10/07 12:17:07;;;;;;;16.20;4.13;;;17.70;99.90;;;;;;5094872;28;20056;-22
2023/10/07 12:19:35;;;;;;;12.20;3.75;;;17.60;99.90;;;;;;5093668;28;20481;-22
2023/10/07 12:22:03;;;;;;;12.80;3.47;;;17.60;99.90;;;;;;5095372;28;20064;-22
2023/10/07 12:24:29;;;;;;;10.93;3.03;;;17.60;99.90;;;;;;5095545;28;20051;-22
2023/10/07 12:26:56;;;;;;;12.48;4.07;;;17.70;99.90;;;;;;5094637;28;20044;-22
2023/10/07 12:29:25;;;;;;;14.70;4.30;;;17.80;99.90;;;;;;5094555;28;20095;-22
2023/10/07 12:31:51;;;;;;;17.92;4.50;;;17.90;99.90;;;;;;5093397;28;20126;-22
2023/10/07 12:34:18;;;;;;;9.05;3.22;;;17.90;99.90;;;;;;5094264;28;20490;-22
2023/10/07 12:36:44;;;;;;;14.05;3.53;;;17.90;99.90;;;;;;5093598;28;20133;-22
2023/10/07 12:39:11;;;;;;;14.98;4.38;;;17.90;99.90;;;;;;5094389;28;20132;-22
2023/10/07 12:41:40;;;;;;;18.77;4.22;;;17.90;99.90;;;;;;5094482;28;20456;-22
2023/10/07 12:44:08;;;;;;;13.85;3.40;;;17.90;99.90;;;;;;5094392;28;20166;-22
2023/10/07 12:46:43;;;;;;;13.18;3.80;;;17.90;99.90;;;;;;5094965;28;20101;-22
2023/10/07 12:49:10;;;;;;;12.68;3.40;;;17.90;99.90;;;;;;5093976;28;20051;-22
2023/10/07 12:51:45;;;;;;;11.13;3.38;;;17.70;99.90;;;;;;5094964;28;20048;-22
2023/10/07 12:54:11;;;;;;;17.55;4.82;;;17.60;99.90;;;;;;5093081;28;20051;-22
2023/10/07 12:56:38;;;;;;;17.95;5.13;;;17.60;99.90;;;;;;5094620;28;20048;-22
2023/10/07 12:59:22;;;;;;;13.93;4.30;;;17.50;99.90;;;;;;5094138;28;20488;-22
2023/10/07 13:01:55;;;;;;;17.63;4.10;;;17.50;99.90;;;;;;5094968;28;20052;-22
2023/10/07 13:04:42;;;;;;;15.93;4.72;;;17.40;99.90;;;;;;5093936;28;20054;-23
2023/10/07 13:07:10;;;;;;;11.35;3.78;;;17.40;99.90;;;;;;5094607;28;20048;-22
2023/10/07 13:09:40;;;;;;;15.27;4.38;;;17.30;99.90;;;;;;5093919;28;20072;-22
2023/10/07 13:12:13;;;;;;;14.43;4.20;;;17.30;99.90;;;;;;5094550;28;20047;-22
2023/10/07 13:14:41;;;;;;;;;;;17.30;99.90;;;;;;5093497;28;20535;-22
2023/10/07 13:17:13;;;;;;;12.52;3.67;;;17.20;99.90;;;;;;5094293;28;19966;-22
2023/10/07 13:19:40;;;;;;;17.60;4.30;;;17.30;99.90;;;;;;5094484;28;20044;-22
2023/10/07 13:22:06;;;;;;;12.48;4.03;;;17.20;99.90;;;;;;5092700;28;20109;-22
2023/10/07 13:24:34;;;;;;;15.60;3.75;;;17.30;99.90;;;;;;5094033;28;20056;-22
2023/10/07 13:27:04;;;;;;;12.82;3.75;;;17.20;99.90;;;;;;5093749;28;20062;-22
2023/10/07 13:29:34;;;;;;;13.00;3.88;;;17.20;99.90;;;;;;5093663;28;20040;-22
2023/10/07 13:32:03;;;;;;;15.75;4.72;;;17.10;99.90;;;;;;5092636;28;20087;-22
2023/10/07 13:34:30;;;;;;;17.67;4.47;;;17.10;99.90;;;;;;5093209;28;20044;-22
2023/10/07 13:36:56;;;;;;;18.88;4.72;;;17.10;99.90;;;;;;5093948;28;20083;-22
2023/10/07 13:39:24;;;;;;;16.50;4.25;;;17.20;99.90;;;;;;5092345;28;20142;-22
2023/10/07 13:41:52;;;;;;;11.75;4.32;;;17.10;99.90;;;;;;5093548;28;20044;-22
2023/10/07 13:44:19;;;;;;;16.80;4.57;;;17.00;99.90;;;;;;5092641;28;20040;-22
2023/10/07 13:46:48;;;;;;;15.38;4.15;;;17.00;99.90;;;;;;5075581;28;20486;-22
2023/10/07 13:49:14;;;;;;;12.43;4.15;;;17.10;99.90;;;;;;5093319;28;20067;-22
2023/10/07 13:51:43;;;;;;;15.60;4.57;;;17.00;99.90;;;;;;5093228;28;20048;-22
2023/10/07 13:54:22;;;;;;;14.10;4.47;;;17.00;99.90;;;;;;5092112;28;20512;-22
2023/10/07 13:56:55;;;;;;;17.70;4.05;;;17.00;99.90;;;;;;5093482;28;20173;-22
2023/10/07 13:59:26;;;;;;;9.68;3.35;;;17.00;99.90;;;;;;5094147;28;20476;-22
2023/10/07 14:02:00;;;;;;;14.02;4.38;;;17.00;99.90;;;;;;5093523;28;20490;-22